createdAt,value
2024-01-14T00:02:44.866Z,57.70
2024-01-14T00:07:47.144Z,59.93
2024-01-14T00:12:49.324Z,61.37
2024-01-14T00:17:51.475Z,61.50
2024-01-14T00:22:53.724Z,59.40
2024-01-14T00:27:55.907Z,58.70
2024-01-14T00:32:58.059Z,60.63
2024-01-14T00:38:01.212Z,58.37
2024-01-14T00:43:03.827Z,58.67
2024-01-14T00:48:06.208Z,64.00
2024-01-14T00:53:08.422Z,61.07
2024-01-14T00:58:10.486Z,68.30
2024-01-14T01:03:12.935Z,57.30
2024-01-14T01:08:15.053Z,59.93
2024-01-14T01:13:17.189Z,59.40
2024-01-14T01:18:19.277Z,62.23
2024-01-14T01:23:21.408Z,63.53
2024-01-14T01:28:23.570Z,57.77
2024-01-14T01:33:25.980Z,60.13
2024-01-14T01:38:28.121Z,61.90
2024-01-14T01:43:30.282Z,55.57
2024-01-14T01:48:34.639Z,56.90
2024-01-14T01:53:37.526Z,60.10
2024-01-14T01:58:40.966Z,58.43
2024-01-14T02:03:43.723Z,56.93
2024-01-14T02:08:45.887Z,58.10
2024-01-14T02:13:47.960Z,52.77
2024-01-14T02:18:50.207Z,62.30
2024-01-14T02:24:04.577Z,54.23
2024-01-14T02:29:08.444Z,60.80
2024-01-14T02:34:11.658Z,60.50
2024-01-14T02:39:13.863Z,63.47
2024-01-14T02:44:16.612Z,64.67
2024-01-14T02:49:19.044Z,65.90
2024-01-14T02:54:21.074Z,59.67
2024-01-14T02:59:23.097Z,61.43
2024-01-14T03:04:25.155Z,58.00
2024-01-14T03:09:27.295Z,49.60
2024-01-14T03:14:29.362Z,60.77
2024-01-14T03:19:31.609Z,69.27
2024-01-14T03:24:34.498Z,65.43
2024-01-14T03:29:36.598Z,64.57
2024-01-14T03:34:38.699Z,66.40
2024-01-14T03:39:42.250Z,63.20
2024-01-14T03:44:44.272Z,57.90
2024-01-14T03:49:46.539Z,60.03
2024-01-14T03:54:48.665Z,63.83
2024-01-14T03:59:50.768Z,63.33
2024-01-14T04:04:54.262Z,63.40
2024-01-14T04:09:56.662Z,58.57
2024-01-14T04:14:58.871Z,47.33
2024-01-14T04:20:01.725Z,54.13
2024-01-14T04:25:04.092Z,58.77
2024-01-14T04:30:07.139Z,52.83
2024-01-14T04:35:09.305Z,52.60
2024-01-14T04:40:11.768Z,59.53
2024-01-14T04:45:13.748Z,52.30
2024-01-14T04:50:16.277Z,51.50
2024-01-14T04:55:18.826Z,46.30
2024-01-14T05:00:20.854Z,52.83
2024-01-14T05:05:22.892Z,48.60
2024-01-14T05:10:24.898Z,50.70
2024-01-14T05:15:26.960Z,46.20
2024-01-14T05:20:29.072Z,51.93
2024-01-14T05:25:31.176Z,46.13
2024-01-14T05:30:33.386Z,43.17
2024-01-14T05:35:35.887Z,48.70
2024-01-14T05:40:37.999Z,50.10
2024-01-14T05:45:40.732Z,42.10
2024-01-14T05:50:42.852Z,43.17
2024-01-14T05:55:45.291Z,42.77
2024-01-14T06:00:47.458Z,46.70
2024-01-14T06:05:49.682Z,44.03
2024-01-14T06:10:51.864Z,41.10
2024-01-14T06:15:53.928Z,40.27
2024-01-14T06:21:01.524Z,39.67
2024-01-14T06:26:03.560Z,40.03
2024-01-14T06:31:08.885Z,40.33
2024-01-14T06:36:11.171Z,44.83
2024-01-14T06:41:20.263Z,33.47
2024-01-14T06:46:22.198Z,36.43
2024-01-14T06:51:24.183Z,37.90
2024-01-14T06:56:26.827Z,37.13
2024-01-14T07:01:28.834Z,40.10
2024-01-14T07:06:30.918Z,41.53
2024-01-14T07:11:32.972Z,40.57
2024-01-14T07:16:36.908Z,41.80
2024-01-14T07:21:39.211Z,38.90
2024-01-14T07:26:41.206Z,35.17
2024-01-14T07:31:43.316Z,36.57
2024-01-14T07:36:45.324Z,32.07
2024-01-14T07:41:47.290Z,35.53
2024-01-14T07:46:49.306Z,36.93
2024-01-14T07:51:51.395Z,38.30
2024-01-14T07:56:53.852Z,33.00
2024-01-14T08:01:55.970Z,34.60
2024-01-14T08:06:58.015Z,36.63
2024-01-14T08:12:00.089Z,35.70
2024-01-14T08:17:02.118Z,32.40
2024-01-14T08:22:04.267Z,31.27
2024-01-14T08:27:06.303Z,35.73
2024-01-14T08:32:08.374Z,34.07
2024-01-14T08:37:10.378Z,30.87
2024-01-14T08:42:12.536Z,27.70
2024-01-14T08:47:15.287Z,28.23
2024-01-14T08:52:17.272Z,29.40
2024-01-14T08:57:19.783Z,28.03
2024-01-14T09:02:22.675Z,30.50
2024-01-14T09:07:25.906Z,25.13
2024-01-14T09:12:28.623Z,25.13
2024-01-14T09:17:31.449Z,22.20
2024-01-14T09:22:33.706Z,23.70
2024-01-14T09:27:36.441Z,23.47
2024-01-14T09:32:38.646Z,25.00
2024-01-14T09:37:40.687Z,23.77
2024-01-14T09:42:46.114Z,19.40
2024-01-14T09:47:49.375Z,25.23
2024-01-14T09:52:53.043Z,24.93
2024-01-14T09:57:59.870Z,22.13
2024-01-14T10:03:04.715Z,25.97
2024-01-14T10:08:07.911Z,22.00
2024-01-14T10:13:09.928Z,18.27
2024-01-14T10:18:12.046Z,21.60
2024-01-14T10:23:17.788Z,15.93
2024-01-14T10:28:20.132Z,20.47
2024-01-14T10:33:23.818Z,17.17
2024-01-14T10:38:26.821Z,20.83
2024-01-14T10:43:29.733Z,19.13
2024-01-14T10:48:40.079Z,22.53
2024-01-14T10:53:53.404Z,19.80
2024-01-14T10:58:57.711Z,21.77
2024-01-14T11:04:02.081Z,15.30
2024-01-14T11:09:04.392Z,17.83
2024-01-14T11:14:22.685Z,19.57
2024-01-14T11:19:36.831Z,19.70
2024-01-14T11:24:40.588Z,21.83
2024-01-14T11:29:42.639Z,19.83
2024-01-14T11:34:47.635Z,18.90
2024-01-14T11:39:51.438Z,18.87
2024-01-14T11:44:54.311Z,29.60
2024-01-14T11:49:56.629Z,19.87
2024-01-14T11:54:58.978Z,19.97
2024-01-14T12:00:01.762Z,20.37
2024-01-14T12:05:19.583Z,19.53
2024-01-14T12:10:21.798Z,19.83
2024-01-14T12:15:23.834Z,18.47
2024-01-14T12:20:27.716Z,15.63
2024-01-14T12:30:49.607Z,20.00
2024-01-14T12:35:52.110Z,21.07
2024-01-14T12:40:54.803Z,14.93
2024-01-14T12:45:57.637Z,20.03
2024-01-14T12:51:01.080Z,18.70
2024-01-14T12:56:14.077Z,17.73
2024-01-14T13:01:16.438Z,15.10
2024-01-14T13:06:18.747Z,19.50
2024-01-14T13:11:20.959Z,16.70
2024-01-14T13:16:23.724Z,13.80
2024-01-14T13:21:25.979Z,18.90
2024-01-14T13:26:29.419Z,17.53
2024-01-14T13:31:33.069Z,21.03
2024-01-14T13:36:35.304Z,20.47
2024-01-14T13:41:37.331Z,22.20
2024-01-14T13:46:39.307Z,15.73
2024-01-14T13:51:41.735Z,19.60
2024-01-14T13:56:44.613Z,19.23
2024-01-14T14:01:46.701Z,18.40
2024-01-14T14:06:48.828Z,19.00
2024-01-14T14:11:50.911Z,17.50
2024-01-14T14:16:53.064Z,21.17
2024-01-14T14:22:00.298Z,19.40
2024-01-14T14:27:04.447Z,22.07
2024-01-14T14:32:10.146Z,24.90
2024-01-14T14:37:12.156Z,21.57
2024-01-14T14:42:14.563Z,18.97
2024-01-14T14:47:18.635Z,25.20
2024-01-14T14:52:22.066Z,19.83
2024-01-14T14:57:24.150Z,21.13
2024-01-14T15:02:26.152Z,22.40
2024-01-14T15:07:28.818Z,20.60
2024-01-14T15:12:31.120Z,20.20
2024-01-14T15:17:33.115Z,28.80
2024-01-14T15:22:35.160Z,20.63
2024-01-14T15:27:38.616Z,21.40
2024-01-14T15:32:40.909Z,22.80
2024-01-14T15:37:43.118Z,24.00
2024-01-14T15:42:46.784Z,21.07
2024-01-14T15:47:48.822Z,19.27
2024-01-14T15:52:50.950Z,19.27
2024-01-14T15:57:53.019Z,21.90
2024-01-14T16:02:55.058Z,15.87
2024-01-14T16:07:57.180Z,23.37
2024-01-14T16:12:59.271Z,18.23
2024-01-14T16:18:01.650Z,18.63
2024-01-14T16:23:06.445Z,21.50
2024-01-14T16:28:08.584Z,21.20
2024-01-14T16:33:12.467Z,21.03
2024-01-14T16:38:14.817Z,19.67
2024-01-14T16:43:16.760Z,22.03
2024-01-14T16:48:18.772Z,18.30
2024-01-14T16:53:20.881Z,20.37
2024-01-14T16:58:22.915Z,21.27
2024-01-14T17:03:25.043Z,22.57
2024-01-14T17:08:27.285Z,21.07
2024-01-14T17:13:29.441Z,25.03
2024-01-14T17:18:31.593Z,26.77
2024-01-14T17:23:33.715Z,26.37
2024-01-14T17:28:42.017Z,23.40
2024-01-14T17:33:48.075Z,21.63
2024-01-14T17:38:51.678Z,27.37
2024-01-14T17:43:53.793Z,27.90
2024-01-14T17:48:55.928Z,36.07
2024-01-14T17:53:58.252Z,25.93
2024-01-14T17:59:00.283Z,22.90
2024-01-14T18:04:03.227Z,26.33
2024-01-14T18:09:05.294Z,28.63
2024-01-14T18:14:07.338Z,32.93
2024-01-14T18:19:09.497Z,21.07
2024-01-14T18:24:14.587Z,30.50
2024-01-14T18:29:17.248Z,25.37
2024-01-14T18:34:20.227Z,27.23
2024-01-14T18:39:24.570Z,29.13
2024-01-14T18:44:28.706Z,24.23
2024-01-14T18:49:30.829Z,28.70
2024-01-14T18:54:33.043Z,26.97
2024-01-14T18:59:34.998Z,30.03
2024-01-14T19:04:37.169Z,28.37
2024-01-14T19:09:39.265Z,23.90
2024-01-14T19:14:41.322Z,33.10
2024-01-14T19:19:43.535Z,23.00
2024-01-14T19:24:45.764Z,30.67
2024-01-14T19:29:48.284Z,26.13
2024-01-14T19:34:50.401Z,25.93
2024-01-14T19:39:52.537Z,25.23
2024-01-14T19:44:54.629Z,27.57
2024-01-14T19:49:56.918Z,24.13
2024-01-14T19:54:59.101Z,32.47
2024-01-14T20:00:07.163Z,31.63
2024-01-14T20:05:12.306Z,28.83
2024-01-14T20:10:14.437Z,30.17
2024-01-14T20:15:16.585Z,25.97
2024-01-14T20:20:18.717Z,31.23
2024-01-14T20:25:20.883Z,32.23
2024-01-14T20:30:24.060Z,37.60
2024-01-14T20:35:26.239Z,35.57
2024-01-14T20:40:28.359Z,35.60
2024-01-14T20:45:30.844Z,32.33
2024-01-14T20:50:32.898Z,32.93
2024-01-14T20:55:35.028Z,32.60
2024-01-14T21:00:37.109Z,34.47
2024-01-14T21:05:39.162Z,35.23
2024-01-14T21:10:41.154Z,33.73
2024-01-14T21:15:43.545Z,39.47
2024-01-14T21:20:45.588Z,34.53
2024-01-14T21:25:47.730Z,38.90
2024-01-14T21:30:49.872Z,36.47
2024-01-14T21:35:52.884Z,36.47
2024-01-14T21:40:54.927Z,35.83
2024-01-14T21:45:58.081Z,41.07
2024-01-14T21:51:01.618Z,32.07
2024-01-14T21:56:03.959Z,36.40
2024-01-14T22:01:06.098Z,41.93
2024-01-14T22:06:08.455Z,36.47
2024-01-14T22:11:12.348Z,39.73
2024-01-14T22:16:14.430Z,36.07
2024-01-14T22:21:16.381Z,40.43
2024-01-14T22:26:18.385Z,41.23
2024-01-14T22:31:20.664Z,41.43
2024-01-14T22:36:22.786Z,40.43
2024-01-14T22:41:24.803Z,44.57
2024-01-14T22:46:26.801Z,46.23
2024-01-14T22:51:28.985Z,42.73
2024-01-14T22:56:31.162Z,39.73
2024-01-14T23:01:33.298Z,45.40
2024-01-14T23:06:35.563Z,46.67
2024-01-14T23:11:37.698Z,40.33
2024-01-14T23:16:40.220Z,35.63
2024-01-14T23:21:43.647Z,42.23
2024-01-14T23:26:45.697Z,44.80
2024-01-14T23:31:47.970Z,42.67
2024-01-14T23:36:50.547Z,42.30
2024-01-14T23:41:52.694Z,43.13
2024-01-14T23:46:54.965Z,41.87
2024-01-14T23:51:57.273Z,36.77
2024-01-14T23:56:59.455Z,42.00
